Time;durP1;ratioP1;P1;durP2;ratioP2;P2;SDS_P1;SDS_P2;PMS_P1;PMS_P2;Temp;Humidity;BMP_temperature;BMP_pressure;BME280_temperature;BME280_humidity;BME280_pressure;Samples;Min_cycle;Max_cycle;Signal;HPM_P1;HPM_P2
2023/06/21 00:00:59;;;;;;;12.38;9.02;;;27.40;51.70;;;;;;5014500;28;20036;-74
2023/06/21 00:03:25;;;;;;;15.07;9.90;;;27.40;51.60;;;;;;5032210;28;20026;-74
2023/06/21 00:05:51;;;;;;;16.77;9.40;;;27.40;53.40;;;;;;5014688;28;20405;-74
2023/06/21 00:08:16;;;;;;;12.25;9.10;;;27.40;52.70;;;;;;5032608;28;20083;-74
2023/06/21 00:10:44;;;;;;;10.70;9.32;;;27.40;54.10;;;;;;5015178;28;20033;-74
2023/06/21 00:13:15;;;;;;;12.10;9.63;;;27.30;53.80;;;;;;5031282;28;20071;-73
2023/06/21 00:15:41;;;;;;;10.40;9.30;;;27.30;55.30;;;;;;5028546;28;20776;-74
2023/06/21 00:18:13;;;;;;;12.23;9.15;;;27.30;54.70;;;;;;5032573;28;20492;-74
2023/06/21 00:20:38;;;;;;;11.73;9.20;;;27.20;55.30;;;;;;5014549;28;20040;-74
2023/06/21 00:23:11;;;;;;;14.32;9.90;;;27.20;54.90;;;;;;5014435;28;20034;-74
2023/06/21 00:25:37;;;;;;;12.07;10.32;;;27.10;55.80;;;;;;5032429;28;20029;-73
2023/06/21 00:28:02;;;;;;;17.60;10.90;;;27.10;56.10;;;;;;5032280;28;20424;-74
2023/06/21 00:30:34;;;;;;;12.90;9.82;;;26.90;55.60;;;;;;5032383;28;20381;-74
2023/06/21 00:33:01;;;;;;;12.80;7.82;;;26.80;55.60;;;;;;5014238;28;20485;-74
2023/06/21 00:49:04;;;;;;;15.10;5.70;;;26.60;55.80;;;;;;5012456;28;20436;-74
2023/06/21 00:51:33;;;;;;;11.27;6.15;;;26.50;56.30;;;;;;5012945;28;20030;-74
2023/06/21 00:54:00;;;;;;;10.40;5.70;;;26.50;56.50;;;;;;5030759;28;20041;-74
2023/06/21 00:56:25;;;;;;;10.20;5.18;;;26.40;56.00;;;;;;5023405;28;20083;-74
2023/06/21 00:58:57;;;;;;;15.52;7.25;;;26.40;55.60;;;;;;5014286;28;20029;-74
2023/06/21 01:01:23;;;;;;;13.18;6.00;;;26.30;56.30;;;;;;5031432;28;20053;-74
2023/06/21 01:03:52;;;;;;;13.40;5.85;;;26.30;55.50;;;;;;5031432;28;20460;-74
2023/06/21 01:06:32;;;;;;;8.65;5.20;;;26.20;55.90;;;;;;5031916;28;20022;-74
2023/06/21 01:09:06;;;;;;;8.10;4.70;;;26.10;56.10;;;;;;5031795;28;20026;-74
2023/06/21 01:12:00;;;;;;;12.88;5.28;;;26.10;56.10;;;;;;5031707;28;20392;-74
2023/06/21 01:14:53;;;;;;;13.00;5.90;;;26.00;55.80;;;;;;5031634;28;20025;-74
2023/06/21 01:17:23;;;;;;;12.30;5.05;;;25.90;55.80;;;;;;5015513;28;20100;-74
2023/06/21 01:19:56;;;;;;;9.60;4.65;;;25.90;55.50;;;;;;5018188;28;20045;-74
2023/06/21 01:22:22;;;;;;;12.02;4.63;;;25.80;55.40;;;;;;5018175;28;20037;-74
2023/06/21 01:25:27;;;;;;;15.32;5.05;;;25.80;55.50;;;;;;5035562;28;20455;-74
2023/06/21 01:28:15;;;;;;;11.35;5.50;;;25.70;55.40;;;;;;5035421;28;20025;-74
2023/06/21 01:30:42;;;;;;;11.15;6.00;;;25.70;55.70;;;;;;5017885;28;20032;-75
2023/06/21 01:33:09;;;;;;;13.15;5.10;;;25.70;56.10;;;;;;5035527;28;20079;-75
2023/06/21 01:35:37;;;;;;;19.25;5.43;;;25.60;57.10;;;;;;5035145;28;20021;-74
2023/06/21 01:38:03;;;;;;;15.10;4.70;;;25.60;57.20;;;;;;5035497;28;20183;-74
2023/06/21 01:40:29;;;;;;;9.90;4.72;;;25.60;57.20;;;;;;5033475;28;20549;-74
2023/06/21 01:42:55;;;;;;;13.38;5.63;;;25.60;57.70;;;;;;5017502;28;20393;-74
2023/06/21 01:45:24;;;;;;;11.00;4.80;;;25.60;57.20;;;;;;5035422;28;20029;-74
2023/06/21 01:47:51;;;;;;;9.68;5.93;;;25.60;57.80;;;;;;5035258;28;20017;-74
2023/06/21 01:50:19;;;;;;;13.32;6.25;;;25.50;56.50;;;;;;5017480;28;20021;-74
2023/06/21 01:52:53;;;;;;;17.48;6.38;;;25.50;57.90;;;;;;5011888;28;20038;-74
2023/06/21 01:55:19;;;;;;;8.80;5.68;;;25.50;58.80;;;;;;5033857;28;20041;-74
2023/06/21 01:57:52;;;;;;;11.23;5.25;;;25.50;58.50;;;;;;5035192;28;20056;-75
2023/06/21 02:00:21;;;;;;;10.52;5.72;;;25.40;58.20;;;;;;5034960;28;20469;-74
2023/06/21 02:03:03;;;;;;;8.18;5.50;;;25.40;58.00;;;;;;5033690;28;20037;-75
2023/06/21 02:05:32;;;;;;;15.40;6.20;;;25.40;58.00;;;;;;5034989;28;20102;-74
2023/06/21 02:08:09;;;;;;;9.57;5.70;;;25.40;58.50;;;;;;5034956;28;20025;-75
2023/06/21 02:10:35;;;;;;;9.07;4.88;;;25.40;58.70;;;;;;5035055;28;20075;-75
2023/06/21 02:13:04;;;;;;;9.75;5.03;;;25.30;58.60;;;;;;5033757;28;20026;-75
2023/06/21 02:15:30;;;;;;;6.75;4.97;;;25.30;58.50;;;;;;5017084;28;20579;-75
2023/06/21 02:17:56;;;;;;;14.93;5.60;;;25.30;58.50;;;;;;5035121;28;20055;-75
2023/06/21 02:20:22;;;;;;;14.85;5.35;;;25.30;58.80;;;;;;5033570;28;20028;-75
2023/06/21 02:22:56;;;;;;;9.75;4.68;;;25.30;58.60;;;;;;5017046;28;20026;-74
2023/06/21 02:25:28;;;;;;;9.10;4.32;;;25.30;58.50;;;;;;5035072;28;20100;-75
2023/06/21 02:27:56;;;;;;;9.73;4.97;;;25.30;58.50;;;;;;5034322;28;20049;-75
2023/06/21 02:30:24;;;;;;;8.75;5.07;;;25.20;58.70;;;;;;5034533;28;20025;-75
2023/06/21 02:32:53;;;;;;;10.15;5.60;;;25.20;58.60;;;;;;5034817;28;20034;-76
2023/06/21 02:35:22;;;;;;;9.43;5.88;;;25.20;58.80;;;;;;5034045;28;20041;-73
2023/06/21 02:37:56;;;;;;;10.57;6.05;;;25.20;59.00;;;;;;5034645;28;20025;-73
2023/06/21 02:40:25;;;;;;;13.13;6.32;;;25.20;59.00;;;;;;5034291;28;20100;-73
2023/06/21 02:42:56;;;;;;;11.88;5.75;;;25.10;59.40;;;;;;5034051;28;20036;-75
2023/06/21 02:45:30;;;;;;;8.18;5.30;;;25.10;59.50;;;;;;5034440;28;20055;-75
2023/06/21 02:48:01;;;;;;;9.30;5.70;;;25.10;59.70;;;;;;5034239;28;20025;-75
2023/06/21 02:50:27;;;;;;;7.88;5.38;;;25.00;60.00;;;;;;5033050;28;20456;-75
2023/06/21 02:53:01;;;;;;;10.70;5.40;;;25.00;60.00;;;;;;5034112;28;20095;-75
2023/06/21 02:55:26;;;;;;;;;;;24.90;59.90;;;;;;5013772;28;20041;-75
2023/06/21 02:58:01;;;;;;;10.65;6.07;;;25.00;59.00;;;;;;4997871;28;19912;-77
2023/06/21 03:00:31;;;;;;;12.23;6.70;;;24.90;61.60;;;;;;5013346;28;20026;-75
2023/06/21 03:03:05;;;;;;;12.20;5.97;;;24.90;60.60;;;;;;5014345;28;20030;-75
2023/06/21 03:05:33;;;;;;;9.57;5.18;;;24.80;60.20;;;;;;5014840;28;20054;-75
2023/06/21 03:08:04;;;;;;;9.07;5.30;;;24.80;60.00;;;;;;5014331;28;20517;-76
2023/06/21 03:10:32;;;;;;;9.88;5.43;;;24.80;60.20;;;;;;4996544;28;20025;-75
2023/06/21 03:12:58;;;;;;;6.80;5.13;;;24.80;60.80;;;;;;5013884;28;20037;-75
2023/06/21 03:15:31;;;;;;;10.23;5.03;;;24.70;60.30;;;;;;4996327;28;20111;-75
2023/06/21 03:18:00;;;;;;;10.23;5.82;;;24.70;60.70;;;;;;5012962;28;20033;-75
2023/06/21 03:20:26;;;;;;;12.25;5.68;;;24.70;60.70;;;;;;5013968;28;20033;-75
2023/06/21 03:22:57;;;;;;;9.23;5.00;;;24.70;60.70;;;;;;4994943;28;20042;-75
2023/06/21 03:25:26;;;;;;;18.60;6.25;;;24.60;60.70;;;;;;4996283;28;20030;-75
2023/06/21 03:27:52;;;;;;;8.00;5.53;;;24.70;60.80;;;;;;5013484;28;20026;-75
2023/06/21 03:30:18;;;;;;;11.05;5.53;;;24.60;60.60;;;;;;4995987;28;20522;-75
2023/06/21 03:32:46;;;;;;;11.95;6.15;;;24.70;60.90;;;;;;5013767;28;20044;-75
2023/06/21 03:35:14;;;;;;;9.20;5.72;;;24.60;61.00;;;;;;5012937;28;20025;-75
2023/06/21 03:37:43;;;;;;;8.43;5.60;;;24.70;60.90;;;;;;5012388;28;20034;-75
2023/06/21 03:40:13;;;;;;;11.57;5.72;;;24.60;60.80;;;;;;5012643;28;20030;-75
2023/06/21 03:42:43;;;;;;;11.82;6.75;;;24.70;60.80;;;;;;5013172;28;20034;-75
2023/06/21 03:45:12;;;;;;;13.82;6.38;;;24.70;61.40;;;;;;5013763;28;20060;-76
2023/06/21 03:47:40;;;;;;;11.82;6.13;;;24.60;61.10;;;;;;5013402;28;20057;-75
2023/06/21 03:50:13;;;;;;;13.77;6.70;;;24.60;61.00;;;;;;5011971;28;20029;-76
2023/06/21 03:52:41;;;;;;;9.10;6.57;;;24.70;61.40;;;;;;5012342;28;20038;-75
2023/06/21 03:55:08;;;;;;;11.57;7.13;;;24.70;61.50;;;;;;5011968;28;20695;-75
2023/06/21 03:57:38;;;;;;;11.77;7.45;;;24.70;61.30;;;;;;5012952;28;20022;-75
2023/06/21 04:00:11;;;;;;;10.70;7.45;;;24.70;61.30;;;;;;4998331;28;20117;-75
2023/06/21 04:02:42;;;;;;;12.37;8.17;;;24.70;61.30;;;;;;5023506;28;20026;-75
2023/06/21 04:05:11;;;;;;;18.02;8.85;;;24.80;62.00;;;;;;5012467;28;20299;-75
2023/06/21 04:07:46;;;;;;;12.85;9.07;;;24.80;62.50;;;;;;4995669;28;20161;-75
2023/06/21 04:10:15;;;;;;;13.60;8.35;;;24.80;62.30;;;;;;5013527;28;20025;-75
2023/06/21 04:12:41;;;;;;;11.88;8.10;;;24.80;62.40;;;;;;5011771;28;20100;-75
2023/06/21 04:15:11;;;;;;;12.60;7.70;;;24.80;62.20;;;;;;5012679;28;20022;-73
2023/06/21 04:17:37;;;;;;;12.10;7.22;;;24.80;61.90;;;;;;4998775;28;20033;-74
2023/06/21 04:20:13;;;;;;;14.65;8.52;;;24.80;61.90;;;;;;5012082;28;20029;-74
2023/06/21 04:22:42;;;;;;;11.40;7.40;;;24.90;61.80;;;;;;4992783;28;20101;-74
2023/06/21 04:25:09;;;;;;;9.65;6.80;;;24.90;61.60;;;;;;5002236;28;20037;-75
2023/06/21 04:27:35;;;;;;;15.85;7.40;;;24.90;61.50;;;;;;5013233;28;20034;-75
2023/06/21 04:30:01;;;;;;;12.38;8.23;;;25.00;62.50;;;;;;5012496;28;20354;-74
2023/06/21 04:32:32;;;;;;;26.52;8.27;;;25.00;61.70;;;;;;5011566;28;20042;-74
2023/06/21 04:35:01;;;;;;;13.00;7.45;;;25.10;62.30;;;;;;5012436;28;20030;-75
2023/06/21 04:37:45;;;;;;;14.50;7.10;;;25.10;61.50;;;;;;5010539;28;20022;-74
2023/06/21 04:40:21;;;;;;;23.20;7.57;;;25.10;61.20;;;;;;5010883;28;20362;-74
2023/06/21 04:43:00;;;;;;;15.68;8.15;;;25.20;61.00;;;;;;5012249;28;20034;-74
2023/06/21 04:45:29;;;;;;;15.88;7.75;;;25.30;60.80;;;;;;5021466;28;20037;-74
2023/06/21 04:47:57;;;;;;;11.02;7.07;;;25.30;60.70;;;;;;5013106;28;20457;-74
2023/06/21 04:50:26;;;;;;;13.95;7.63;;;25.40;60.70;;;;;;5010269;28;20057;-75
2023/06/21 04:53:04;;;;;;;17.58;7.53;;;25.40;60.60;;;;;;5010755;28;20108;-74
2023/06/21 04:55:29;;;;;;;11.93;7.43;;;25.50;60.50;;;;;;5010919;28;20034;-75
2023/06/21 04:58:03;;;;;;;15.63;7.93;;;25.50;60.30;;;;;;5016198;28;20071;-74
2023/06/21 05:00:29;;;;;;;11.57;6.40;;;25.60;60.40;;;;;;5010869;28;20079;-74
2023/06/21 05:03:28;;;;;;;11.23;7.38;;;25.60;60.30;;;;;;5016757;28;20120;-75
2023/06/21 05:06:01;;;;;;;13.30;8.02;;;25.70;60.40;;;;;;5002638;28;20072;-75
2023/06/21 05:08:44;;;;;;;11.83;7.23;;;25.70;60.40;;;;;;5018424;28;20096;-75
2023/06/21 05:11:33;;;;;;;15.07;7.85;;;25.80;60.30;;;;;;5002033;28;20026;-74
2023/06/21 05:14:19;;;;;;;13.00;7.13;;;25.90;60.10;;;;;;5020174;28;20122;-75
2023/06/21 05:16:45;;;;;;;12.35;8.25;;;25.90;59.90;;;;;;4935459;29;20044;-75
2023/06/21 05:19:16;;;;;;;14.80;8.15;;;26.00;59.70;;;;;;4986096;28;20044;-75
2023/06/21 05:21:47;;;;;;;13.25;7.55;;;26.00;59.70;;;;;;5015892;28;20041;-75
2023/06/21 05:24:20;;;;;;;14.13;8.00;;;26.00;59.70;;;;;;5020609;28;20040;-75
2023/06/21 05:26:52;;;;;;;14.02;7.65;;;26.10;59.10;;;;;;4998749;28;20121;-75
2023/06/21 05:29:20;;;;;;;13.80;7.25;;;26.20;58.70;;;;;;4998178;28;20026;-74
2023/06/21 05:31:55;;;;;;;13.57;8.13;;;26.20;58.70;;;;;;5002617;28;20046;-75
2023/06/21 05:34:23;;;;;;;12.82;7.78;;;26.30;58.50;;;;;;4992572;28;20017;-75
2023/06/21 05:36:54;;;;;;;16.40;7.82;;;26.40;58.40;;;;;;4992030;28;20034;-75
2023/06/21 05:39:27;;;;;;;9.43;7.20;;;26.40;58.50;;;;;;4994285;28;20125;-74
2023/06/21 05:41:53;;;;;;;15.23;7.90;;;26.40;58.50;;;;;;4994026;28;20056;-74
2023/06/21 05:44:19;;;;;;;14.63;7.43;;;26.50;58.50;;;;;;4997934;28;20049;-74
2023/06/21 05:46:45;;;;;;;12.10;6.82;;;26.50;58.40;;;;;;4993931;28;20068;-75
2023/06/21 05:49:18;;;;;;;10.07;7.13;;;26.60;58.30;;;;;;4993958;28;20022;-75
2023/06/21 05:51:46;;;;;;;13.85;7.07;;;26.60;57.70;;;;;;5011347;28;20026;-74
2023/06/21 05:54:12;;;;;;;10.70;7.00;;;26.60;57.40;;;;;;5041197;28;20109;-75
2023/06/21 05:56:37;;;;;;;15.65;7.80;;;26.70;57.40;;;;;;5033546;28;20107;-75
2023/06/21 05:59:06;;;;;;;10.65;6.30;;;26.70;57.40;;;;;;5051302;28;20036;-75
2023/06/21 06:01:34;;;;;;;11.15;6.65;;;26.70;57.50;;;;;;5028770;28;20043;-75
2023/06/21 06:04:02;;;;;;;13.43;6.32;;;26.70;57.40;;;;;;5033547;28;20036;-75
2023/06/21 06:06:40;;;;;;;13.82;6.30;;;26.70;57.10;;;;;;5035730;28;20065;-74
2023/06/21 06:09:10;;;;;;;14.30;6.53;;;26.70;56.90;;;;;;5014362;28;20035;-74
2023/06/21 06:11:36;;;;;;;11.55;6.85;;;26.70;57.10;;;;;;5001028;28;20120;-75
2023/06/21 06:14:04;;;;;;;14.52;6.80;;;26.70;57.20;;;;;;5028041;28;20429;-74
2023/06/21 06:16:32;;;;;;;19.77;6.75;;;26.70;57.10;;;;;;5016245;28;20021;-75
2023/06/21 06:19:05;;;;;;;17.52;7.72;;;26.80;56.90;;;;;;5049671;28;20111;-75
2023/06/21 06:21:36;;;;;;;13.57;6.38;;;26.80;56.70;;;;;;5020151;28;20040;-74
2023/06/21 06:24:11;;;;;;;8.65;6.43;;;26.80;56.70;;;;;;5017512;28;20048;-74
2023/06/21 06:26:39;;;;;;;13.60;7.47;;;26.90;56.30;;;;;;5014829;28;20037;-75
2023/06/21 06:29:13;;;;;;;11.27;5.97;;;26.90;56.30;;;;;;5012689;28;20030;-75
2023/06/21 06:31:42;;;;;;;9.98;6.63;;;27.00;56.30;;;;;;5014733;28;20041;-75
2023/06/21 06:34:15;;;;;;;13.32;7.03;;;27.00;56.10;;;;;;5044541;28;20549;-74
2023/06/21 06:36:49;;;;;;;13.90;7.70;;;27.10;56.00;;;;;;5031682;28;20028;-75
2023/06/21 06:39:14;;;;;;;10.80;6.63;;;27.10;56.10;;;;;;5030208;28;20025;-75
2023/06/21 06:41:42;;;;;;;13.52;6.93;;;27.20;56.10;;;;;;5016025;28;20083;-75
2023/06/21 06:44:16;;;;;;;10.20;5.82;;;27.20;56.00;;;;;;5042684;28;20165;-74
2023/06/21 06:46:55;;;;;;;11.30;5.95;;;27.30;56.10;;;;;;5036597;28;20051;-74
2023/06/21 06:49:26;;;;;;;12.95;6.43;;;27.30;56.00;;;;;;5011644;28;20116;-74
2023/06/21 06:51:54;;;;;;;11.52;6.32;;;27.40;55.90;;;;;;5015664;28;20037;-74
2023/06/21 06:54:31;;;;;;;17.63;7.07;;;27.40;55.70;;;;;;5033097;28;20029;-74
2023/06/21 06:56:59;;;;;;;14.50;6.65;;;27.40;55.60;;;;;;5016248;28;20116;-74
2023/06/21 06:59:25;;;;;;;11.38;6.93;;;27.50;55.60;;;;;;5032946;28;20030;-74
2023/06/21 07:01:53;;;;;;;15.07;6.60;;;27.50;55.60;;;;;;5034168;28;20389;-75
2023/06/21 07:04:25;;;;;;;11.35;6.88;;;27.50;55.50;;;;;;5028691;28;20051;-74
2023/06/21 07:07:01;;;;;;;10.15;6.30;;;27.50;55.60;;;;;;5026074;28;20075;-74
2023/06/21 07:09:37;;;;;;;19.70;5.68;;;27.50;55.50;;;;;;5033477;28;20490;-74
2023/06/21 07:12:03;;;;;;;15.55;7.50;;;27.60;56.30;;;;;;5015752;28;20035;-74
2023/06/21 07:14:34;;;;;;;12.90;7.20;;;27.60;55.80;;;;;;5032676;28;20108;-75
2023/06/21 07:17:05;;;;;;;14.25;6.60;;;27.70;55.60;;;;;;5033957;28;20025;-74
2023/06/21 07:19:33;;;;;;;11.93;6.75;;;27.70;55.40;;;;;;5029394;28;20462;-74
2023/06/21 07:22:10;;;;;;;14.60;8.10;;;27.80;55.50;;;;;;5031888;28;20033;-74
2023/06/21 07:24:41;;;;;;;14.63;7.50;;;27.90;54.50;;;;;;5015882;28;20481;-74
2023/06/21 07:27:14;;;;;;;16.23;6.90;;;28.00;54.80;;;;;;5033644;28;20029;-74
2023/06/21 07:29:45;;;;;;;13.52;7.00;;;28.10;55.10;;;;;;5033416;28;20026;-74
2023/06/21 07:32:14;;;;;;;10.65;7.72;;;28.20;54.80;;;;;;5033160;28;20385;-75
2023/06/21 07:34:41;;;;;;;14.25;8.00;;;28.30;54.40;;;;;;5033260;28;20021;-74
2023/06/21 07:37:10;;;;;;;14.32;7.57;;;28.40;54.30;;;;;;5025815;28;20041;-74
2023/06/21 07:39:41;;;;;;;12.65;7.22;;;28.40;54.10;;;;;;5031334;28;20033;-74
2023/06/21 07:42:09;;;;;;;14.32;7.50;;;28.50;53.40;;;;;;5033016;28;20088;-74
2023/06/21 07:44:37;;;;;;;10.13;6.95;;;28.70;53.70;;;;;;5015182;28;20124;-74
2023/06/21 07:47:08;;;;;;;12.73;7.97;;;28.70;53.50;;;;;;5033167;28;20029;-74
2023/06/21 07:49:39;;;;;;;15.07;8.20;;;28.80;53.40;;;;;;5032623;28;20025;-74
2023/06/21 07:52:07;;;;;;;14.15;7.53;;;28.90;53.00;;;;;;5030631;28;20033;-74
2023/06/21 07:54:37;;;;;;;13.07;8.27;;;29.00;53.10;;;;;;5015025;28;20040;-74
2023/06/21 07:57:08;;;;;;;12.27;8.52;;;29.10;52.80;;;;;;5032545;28;20097;-74
2023/06/21 07:59:41;;;;;;;14.98;8.25;;;29.20;52.40;;;;;;5032923;28;20036;-74
2023/06/21 08:02:09;;;;;;;14.77;8.23;;;29.20;52.60;;;;;;5032695;28;20029;-74
2023/06/21 08:04:42;;;;;;;18.05;7.32;;;29.30;52.60;;;;;;5031116;28;20041;-75
2023/06/21 08:07:08;;;;;;;10.98;7.18;;;29.40;52.50;;;;;;5031247;28;20044;-74
2023/06/21 08:09:37;;;;;;;14.95;8.25;;;29.60;52.70;;;;;;5014603;28;20128;-74
2023/06/21 08:12:06;;;;;;;12.00;7.50;;;29.70;52.40;;;;;;5032594;28;20029;-74
2023/06/21 08:14:43;;;;;;;19.20;7.70;;;29.70;52.40;;;;;;5030973;28;20036;-75
2023/06/21 08:17:17;;;;;;;12.27;7.47;;;29.80;52.10;;;;;;5014509;28;20119;-74
2023/06/21 08:19:47;;;;;;;12.35;7.68;;;29.90;52.00;;;;;;5032270;28;20421;-75
2023/06/21 08:22:22;;;;;;;13.23;7.78;;;30.00;51.70;;;;;;5032516;28;20025;-74
2023/06/21 08:24:59;;;;;;;11.40;7.35;;;30.10;51.50;;;;;;5029800;28;20476;-74
2023/06/21 08:27:27;;;;;;;14.23;8.02;;;30.20;51.20;;;;;;4994819;28;20160;-74
2023/06/21 08:29:58;;;;;;;15.07;9.02;;;30.20;51.20;;;;;;5012433;28;20026;-74
2023/06/21 08:32:26;;;;;;;13.50;7.93;;;30.30;51.00;;;;;;5012759;28;20034;-74
2023/06/21 08:34:54;;;;;;;20.08;8.52;;;30.30;51.20;;;;;;4994775;28;20477;-74
2023/06/21 08:37:25;;;;;;;14.38;8.73;;;30.40;50.70;;;;;;5016386;28;20021;-74
2023/06/21 08:39:52;;;;;;;15.27;8.05;;;30.40;50.50;;;;;;5032096;28;20353;-75
2023/06/21 08:42:24;;;;;;;14.10;7.65;;;30.50;50.70;;;;;;5026054;28;20025;-74
2023/06/21 08:44:56;;;;;;;15.68;8.45;;;30.50;50.70;;;;;;5014090;28;20037;-75
2023/06/21 08:47:26;;;;;;;12.63;7.90;;;30.50;50.50;;;;;;5032274;28;20101;-74
2023/06/21 08:49:58;;;;;;;13.20;8.07;;;30.60;50.60;;;;;;5030602;28;20026;-74
2023/06/21 08:52:26;;;;;;;14.43;8.13;;;30.70;50.30;;;;;;5031924;28;20025;-74
2023/06/21 08:55:05;;;;;;;16.38;7.95;;;30.70;50.00;;;;;;5031888;28;20029;-75
2023/06/21 08:57:40;;;;;;;14.32;9.27;;;30.80;50.10;;;;;;5029604;28;20029;-72
2023/06/21 09:00:12;;;;;;;10.70;8.15;;;30.80;49.50;;;;;;5011984;28;20092;-73
2023/06/21 09:03:10;;;;;;;14.60;8.30;;;30.90;49.70;;;;;;5011995;28;20022;-73
2023/06/21 09:06:02;;;;;;;9.55;7.18;;;31.00;49.70;;;;;;5010870;28;20183;-73
2023/06/21 09:08:34;;;;;;;14.20;8.70;;;31.10;49.60;;;;;;5021143;28;20029;-74
2023/06/21 09:11:00;;;;;;;16.55;8.95;;;31.20;49.30;;;;;;5031761;28;20037;-74
2023/06/21 09:13:27;;;;;;;18.65;9.90;;;31.20;49.20;;;;;;5031548;28;20028;-73
2023/06/21 09:15:56;;;;;;;15.60;9.20;;;31.20;48.50;;;;;;5010108;28;20088;-74
2023/06/21 09:18:25;;;;;;;16.00;9.40;;;31.30;49.00;;;;;;5011763;28;20072;-73
2023/06/21 09:20:54;;;;;;;11.75;8.40;;;31.40;48.60;;;;;;5011822;28;20022;-74
2023/06/21 09:23:22;;;;;;;15.48;8.35;;;31.40;48.70;;;;;;5011845;28;20042;-74
2023/06/21 09:25:53;;;;;;;14.35;8.43;;;31.50;48.30;;;;;;5011857;28;20053;-73
2023/06/21 09:28:19;;;;;;;11.95;8.40;;;31.60;47.70;;;;;;5011884;28;20038;-73
2023/06/21 09:30:44;;;;;;;12.32;8.43;;;31.70;47.50;;;;;;5011899;28;20058;-74
2023/06/21 09:33:11;;;;;;;10.43;7.10;;;31.80;47.00;;;;;;5027991;28;20083;-74
2023/06/21 09:35:45;;;;;;;11.90;7.53;;;31.90;46.60;;;;;;5031433;28;20036;-73
2023/06/21 09:38:33;;;;;;;14.88;8.00;;;31.90;46.10;;;;;;5032391;28;20074;-73
2023/06/21 09:41:05;;;;;;;9.38;7.63;;;32.00;46.40;;;;;;5035361;28;20116;-73
2023/06/21 09:43:33;;;;;;;12.38;7.32;;;32.10;46.00;;;;;;5033592;28;20052;-74
2023/06/21 09:46:04;;;;;;;11.55;8.00;;;32.20;45.90;;;;;;5024331;28;20033;-73
2023/06/21 09:48:39;;;;;;;10.63;8.57;;;32.30;45.30;;;;;;5033064;28;20477;-73
2023/06/21 09:51:08;;;;;;;15.25;7.72;;;32.40;44.50;;;;;;5035104;28;20559;-73
2023/06/21 09:53:42;;;;;;;14.80;7.18;;;32.40;44.70;;;;;;5034328;28;20034;-73
2023/06/21 09:56:17;;;;;;;11.00;7.75;;;32.50;44.60;;;;;;5031517;28;20477;-73
2023/06/21 09:58:48;;;;;;;10.52;6.60;;;32.60;43.90;;;;;;5035149;28;20030;-74
2023/06/21 10:01:17;;;;;;;10.68;7.13;;;32.70;43.60;;;;;;5017376;28;20033;-73
2023/06/21 10:03:46;;;;;;;14.50;7.85;;;32.80;43.60;;;;;;5034743;28;20107;-74
2023/06/21 10:06:28;;;;;;;14.70;8.05;;;32.90;43.40;;;;;;5016987;28;20037;-74
2023/06/21 10:08:56;;;;;;;9.93;6.90;;;32.90;43.20;;;;;;5034308;28;20100;-73
2023/06/21 10:11:26;;;;;;;17.83;7.32;;;33.00;42.20;;;;;;5006811;28;20125;-74
2023/06/21 10:13:54;;;;;;;11.93;7.20;;;33.00;41.80;;;;;;4997139;28;20037;-74
2023/06/21 10:16:23;;;;;;;16.15;7.97;;;33.10;42.20;;;;;;4997336;28;20052;-74
2023/06/21 10:18:52;;;;;;;14.75;7.20;;;33.20;41.80;;;;;;5015205;28;20100;-74
2023/06/21 10:21:30;;;;;;;15.82;7.68;;;33.20;42.00;;;;;;4997028;28;20060;-74
2023/06/21 10:24:00;;;;;;;11.00;7.70;;;33.20;41.50;;;;;;5014769;28;20022;-74
2023/06/21 10:26:32;;;;;;;12.60;8.07;;;33.40;41.30;;;;;;4997181;28;20385;-74
2023/06/21 10:29:02;;;;;;;14.50;7.63;;;33.40;40.90;;;;;;5017442;28;20096;-74
2023/06/21 10:31:32;;;;;;;12.32;7.30;;;33.40;41.00;;;;;;5029834;28;20045;-74
2023/06/21 10:34:07;;;;;;;16.33;7.50;;;33.50;41.00;;;;;;5034290;28;20024;-74
2023/06/21 10:36:36;;;;;;;12.60;7.40;;;33.60;40.70;;;;;;5034337;28;20049;-73
2023/06/21 10:39:09;;;;;;;8.80;6.82;;;33.60;40.00;;;;;;5015747;28;20124;-73
2023/06/21 10:41:36;;;;;;;9.65;7.20;;;33.60;40.20;;;;;;5014318;28;20113;-73
2023/06/21 10:44:06;;;;;;;10.95;7.47;;;33.70;39.90;;;;;;5014490;28;20040;-73
2023/06/21 10:46:37;;;;;;;13.00;6.88;;;33.80;39.70;;;;;;5017420;28;20057;-74
2023/06/21 10:49:06;;;;;;;11.43;7.68;;;33.80;39.70;;;;;;4996592;28;20088;-74
2023/06/21 10:51:36;;;;;;;13.18;7.40;;;33.80;39.50;;;;;;5014636;28;20088;-73
2023/06/21 10:54:05;;;;;;;15.38;6.88;;;33.80;39.30;;;;;;4996720;28;20034;-73
2023/06/21 10:56:34;;;;;;;11.95;6.95;;;33.90;39.20;;;;;;4996831;28;20662;-73
2023/06/21 10:59:05;;;;;;;11.25;7.53;;;33.90;38.50;;;;;;5014143;28;20056;-73
2023/06/21 11:01:37;;;;;;;14.52;7.65;;;33.90;39.10;;;;;;5003753;28;20124;-73
2023/06/21 11:04:04;;;;;;;10.95;6.90;;;34.00;38.70;;;;;;5033798;28;20322;-73
2023/06/21 11:06:36;;;;;;;12.90;7.55;;;34.00;39.00;;;;;;5033150;28;20056;-74
2023/06/21 11:09:16;;;;;;;12.93;8.30;;;34.10;38.40;;;;;;5033660;28;20075;-73
2023/06/21 11:11:53;;;;;;;11.63;6.53;;;34.00;38.50;;;;;;5033219;28;20037;-73
2023/06/21 11:14:28;;;;;;;11.45;6.65;;;34.10;38.50;;;;;;5016032;28;20029;-73
2023/06/21 11:17:14;;;;;;;10.57;6.75;;;34.20;38.20;;;;;;5033489;28;20029;-73
2023/06/21 11:19:47;;;;;;;11.95;7.50;;;34.20;38.60;;;;;;5018003;28;20112;-75
2023/06/21 11:22:19;;;;;;;11.70;7.22;;;34.20;37.80;;;;;;5013963;28;20057;-75
2023/06/21 11:24:58;;;;;;;13.25;6.93;;;34.20;37.70;;;;;;4996453;28;20124;-75
2023/06/21 11:27:27;;;;;;;13.63;7.38;;;34.30;37.50;;;;;;5012249;28;20045;-74
2023/06/21 11:30:09;;;;;;;10.48;6.65;;;34.30;36.80;;;;;;5027101;28;20543;-74
2023/06/21 11:32:55;;;;;;;11.45;7.05;;;34.30;37.20;;;;;;5015781;28;20040;-75
2023/06/21 11:35:54;;;;;;;15.13;7.07;;;34.40;37.60;;;;;;5033135;28;20439;-74
2023/06/21 11:38:26;;;;;;;15.05;6.28;;;34.40;37.00;;;;;;5016762;28;20072;-74
2023/06/21 11:40:56;;;;;;;13.40;7.03;;;34.40;36.80;;;;;;5001380;28;20112;-74
2023/06/21 11:43:24;;;;;;;17.92;6.90;;;34.40;36.90;;;;;;5015367;28;20033;-75
2023/06/21 11:46:07;;;;;;;9.68;5.90;;;34.50;36.60;;;;;;5032999;28;20084;-74
2023/06/21 11:48:42;;;;;;;12.25;5.45;;;34.50;36.20;;;;;;5033050;28;20030;-75
2023/06/21 11:51:18;;;;;;;13.90;6.50;;;34.50;36.10;;;;;;5032992;28;20466;-74
2023/06/21 11:53:48;;;;;;;11.85;6.30;;;34.60;35.90;;;;;;5015303;28;20480;-74
2023/06/21 11:56:20;;;;;;;8.68;5.25;;;34.60;35.30;;;;;;5032782;28;20021;-75
2023/06/21 11:58:53;;;;;;;11.13;5.90;;;34.60;35.70;;;;;;5032950;28;20029;-74
2023/06/21 12:01:21;;;;;;;9.75;5.25;;;34.70;35.50;;;;;;5032215;28;20481;-74
2023/06/21 12:03:58;;;;;;;13.98;5.60;;;34.70;35.40;;;;;;5015293;28;20033;-74
2023/06/21 12:06:32;;;;;;;8.40;5.47;;;34.70;35.90;;;;;;5015214;28;20084;-74
2023/06/21 12:09:03;;;;;;;11.00;5.85;;;34.80;35.10;;;;;;5015025;28;20051;-74
2023/06/21 12:11:31;;;;;;;15.00;5.35;;;34.80;34.80;;;;;;5014291;28;20392;-74
2023/06/21 12:13:57;;;;;;;11.68;6.25;;;34.90;33.90;;;;;;5032596;28;20025;-75
2023/06/21 12:16:30;;;;;;;11.75;5.40;;;34.90;33.60;;;;;;5032861;28;20069;-75
2023/06/21 12:18:58;;;;;;;8.50;4.85;;;35.00;33.80;;;;;;5032446;28;20031;-73
2023/06/21 12:21:29;;;;;;;11.88;5.43;;;35.00;34.00;;;;;;5032063;28;20064;-74
2023/06/21 12:23:58;;;;;;;9.07;5.70;;;35.00;33.20;;;;;;5014537;28;20034;-74
2023/06/21 12:26:36;;;;;;;14.43;5.85;;;35.10;32.90;;;;;;5032229;28;20053;-73
2023/06/21 12:29:09;;;;;;;9.32;5.38;;;35.20;32.70;;;;;;5014561;28;20030;-73
2023/06/21 12:31:43;;;;;;;16.10;5.50;;;35.20;32.60;;;;;;5032200;28;20124;-73
2023/06/21 12:34:19;;;;;;;10.20;5.35;;;35.20;32.50;;;;;;5014173;28;20430;-73
2023/06/21 12:36:47;;;;;;;10.40;5.65;;;35.30;31.80;;;;;;5032431;28;20100;-74
2023/06/21 12:39:23;;;;;;;10.70;5.03;;;35.30;31.70;;;;;;5032141;28;20029;-73
2023/06/21 12:41:56;;;;;;;10.15;5.03;;;35.30;31.60;;;;;;5031791;28;20041;-74
2023/06/21 12:44:23;;;;;;;8.93;4.60;;;35.40;31.40;;;;;;5032049;28;20108;-74
2023/06/21 12:46:51;;;;;;;11.00;5.35;;;35.40;31.20;;;;;;5031978;28;20033;-75
2023/06/21 12:49:28;;;;;;;10.90;5.00;;;35.50;31.10;;;;;;5032456;28;20057;-74
2023/06/21 12:51:54;;;;;;;14.25;6.65;;;35.50;31.20;;;;;;5032145;28;20025;-74
2023/06/21 12:54:22;;;;;;;11.63;5.40;;;35.60;30.10;;;;;;5032025;28;20034;-74
2023/06/21 12:56:59;;;;;;;18.10;5.88;;;35.60;31.00;;;;;;5014284;28;20029;-74
2023/06/21 12:59:30;;;;;;;14.65;6.43;;;35.60;29.80;;;;;;5031615;28;20032;-74
2023/06/21 13:01:57;;;;;;;10.57;5.00;;;35.60;30.60;;;;;;5031933;28;20034;-74
2023/06/21 13:04:26;;;;;;;22.35;6.10;;;35.70;31.10;;;;;;5011628;28;20065;-73
2023/06/21 13:06:59;;;;;;;10.50;5.03;;;35.70;31.30;;;;;;5012645;28;20046;-74
2023/06/21 13:09:31;;;;;;;12.77;5.47;;;35.80;30.80;;;;;;5012073;28;20040;-73
2023/06/21 13:11:56;;;;;;;11.18;5.82;;;35.90;31.20;;;;;;5011941;28;20041;-74